Anapa, Russia

7:06 PM MSK on March 27, 2017 (GMT +0300)
Vityazevo | | Change Station

Elev 20 ft 44.90 °N, 37.30 °E | Updated 36 minutes ago

Mostly Cloudy
Mostly Cloudy
46 °F
Feels Like 40 °F
N
16
Wind Variable Wind from West

Today
High -- | Low -- °F
--% Chance of Precip.
Yesterday
High -- | Low -- °F
Precip. -- in
Pressure 29.95 in
Visibility 6.2 miles
Clouds Mostly Cloudy 3500 ft
Windchill 40 °F
Dew Point 39 °F
Humidity 76%
Rainfall 0.00 in
Snow Depth Not available.
6:21 AM 6:52 PM
Waning Crescent, 0% visible
METAR URKA 271530Z 26007MPS 9999 BKN035 08/04 Q1014 R22/010070 RMK QFE756/1008
Pressure 29.95 in
Visibility 6.2 miles
Clouds Mostly Cloudy 3500 ft
Windchill 40 °F
Dew Point 39 °F
Humidity 76%
Rainfall 0.00 in
Snow Depth Not available.
6:21 AM 6:52 PM
Waning Crescent, 0% visible
METAR URKA 271530Z 26007MPS 9999 BKN035 08/04 Q1014 R22/010070 RMK QFE756/1008

Get Severe Weather Alerts

Thanks for signing up!

Be on the lookout for a verification email in your inbox.

You'll start receiving the daily forecast at 8 AM.

×

10-Day Weather Forecast

×

Almanac

Astronomy

Mar. 27, 2017 Rise Set
Actual Time
Civil Twilight
Nautical Twilight
Astronomical Twilight
Moon
Length of Visible Light
Length of Day
Tomorrow will be .
, % of the Moon is Illuminated

Today's Extremes

Country Highs Country Lows

Community

WunderPhotos

Upload Photos

1,962,540 photos uploaded!

WunderBlog® & News

Nearby

Air Quality

  Air Quality AQ Index Pollutant
Not available.

Snow Depth

Station Depth Elevation

Earthquake Activity

City Distance Mag. Time & Date
Minimum magnitude displayed is 2.5.

Earthquake Activity

City Distance Mag. Time & Date
Minimum magnitude displayed is 2.5.

Coastal Water Temperatures

Place Temperature

Stations

Nearby Weather Stations

Station Location Temp. Windchill Dew Point Humidity Wind Precip. Elev Updated Type